LEZL/SVQ METAR and TAF weather

Enter ICAO airport designator
Station Type Date Time Source
LEZL METAR 2019/09/20 09:30 UTC NOAA

LEZL 200930Z 28003KT 240V330 CAVOK 23/17 Q1015 NOSIG


Station Type Date Time Source
LEZL Decoded METAR 2019/09/20 09:30 UTC NOAA

Sevilla / San Pablo, Spain (LEZL) 37-25N 005-54W 31M
Sep 20, 2019 - 05:30 AM EDT / 2019.09.20 0930 UTC
Wind: from the W (280 degrees) at 3 MPH (3 KT) (direction variable):0
Visibility: greater than 7 mile(s):0
Temperature: 73 F (23 C)
Dew Point: 62 F (17 C)
Relative Humidity: 68%
Pressure (altimeter): 29.97 in. Hg (1015 hPa)
ob: LEZL 200930Z 28003KT 240V330 CAVOK 23/17 Q1015 NOSIG
cycle: 9

Station Type Date Time Source
LEZL TAF 2019/09/20 09:30 UTC NOAA

TAF LEZL 200800Z 2009/2109 20006KT 9999 FEW030 TX28/2015Z TN18/2106Z PROB30
TEMPO 2015/2103 SCT020CB

Example: see airport list